ADDS METAR Data INFO
IDs: Format: Raw Decoded Include TAF

Data at: 0256 UTC 21 Jan 2018

KUCY 210235Z AUTO 18006KT 10SM SCT030 SCT037 OVC055 09/07 A3010 RMK A01
KUCY 210215Z AUTO 19005KT 10SM BKN029 OVC046 09/07 A3010 RMK A01
KUCY 210155Z AUTO 19004KT 10SM OVC028 09/06 A3010 RMK A01
KUCY 210135Z AUTO 20006KT 10SM OVC026 09/06 A3010 RMK A01
KUCY 210115Z AUTO 18008KT 10SM OVC025 10/07 A3010 RMK A01
KUCY 210055Z AUTO 18008KT 10SM OVC026 09/06 A3010 RMK A01
KUCY 210035Z AUTO 17007KT 10SM SCT027 BKN037 OVC055 09/06 A3010 RMK A01
KUCY 210015Z AUTO 17006KT 10SM SCT022 BKN028 OVC050 09/07 A3009 RMK A01
KUCY 202355Z AUTO 18007KT 8SM OVC022 09/06 A3010 RMK A01
KUCY 202335Z AUTO 18006KT 10SM OVC024 09/06 A3009 RMK A01
KUCY 202315Z AUTO 00000KT 10SM OVC028 09/04 A3009 RMK A01
KUCY 202255Z AUTO 17006KT 10SM BKN030 OVC035 09/05 A3008 RMK A01
KUCY 202235Z AUTO 18007KT 10SM OVC032 09/05 A3008 RMK A01
KUCY 202215Z AUTO 19006KT 10SM OVC030 09/04 A3008 RMK A01
KUCY 202155Z AUTO 18006KT 10SM OVC030 09/03 A3008 RMK A01
KUCY 202135Z AUTO 19005KT 10SM SCT020 SCT027 OVC033 09/02 A3008 RMK A01
KUCY 202115Z AUTO 18006KT 10SM OVC020 08/02 A3009 RMK A01
KUCY 202055Z AUTO 18006KT 10SM OVC020 09/01 A3009 RMK A01
KUCY 202035Z AUTO 18006KT 10SM OVC019 09/01 A3009 RMK A01
KUCY 202015Z AUTO 19006KT 10SM OVC017 09/00 A3009 RMK A01
KUCY 201955Z AUTO 19006KT 10SM OVC017 08/M00 A3010 RMK A01
KUCY 201935Z AUTO 18007KT 10SM OVC017 08/M00 A3010 RMK A01
KUCY 201915Z AUTO 18007KT 10SM OVC017 08/M01 A3011 RMK A01
KUCY 201855Z AUTO 19004KT 10SM OVC018 08/M02 A3012 RMK A01
KUCY 201835Z AUTO 18005KT 10SM OVC017 08/M02 A3013 RMK A01
KUCY 201815Z AUTO 20004KT 10SM OVC017 08/M02 A3014 RMK A01
KUCY 201755Z AUTO 19006KT 10SM OVC017 08/M02 A3015 RMK A01
KUCY 201735Z AUTO 18005KT 10SM OVC016 07/M02 A3016 RMK A01
KUCY 201715Z AUTO 18007KT 10SM OVC017 07/M02 A3017 RMK A01
KUCY 201655Z AUTO 18005KT 10SM OVC016 07/M03 A3018 RMK A01
KUCY 201635Z AUTO 19005KT 10SM OVC016 07/M03 A3019 RMK A01
KUCY 201615Z AUTO 18007KT 10SM BKN016 OVC022 06/M03 A3019 RMK A01
KUCY 201555Z AUTO 17006KT 10SM BKN016 OVC022 06/M03 A3019 RMK A01
KUCY 201535Z AUTO 18006KT 10SM OVC016 06/M03 A3019 RMK A01
KUCY 201515Z AUTO 18006KT 10SM OVC014 05/M03 A3019 RMK A01
KUCY 201455Z AUTO 18007KT 10SM BKN014 OVC018 05/M03 A3018 RMK A01
KUCY 201435Z AUTO 18007KT 10SM OVC015 05/M03 A3017 RMK A01
KUCY 201415Z AUTO 20004KT 10SM OVC015 05/M03 A3017 RMK A01
KUCY 201355Z AUTO 19006KT 10SM OVC017 05/M04 A3017 RMK A01
KUCY 201335Z AUTO 20005KT 10SM OVC017 05/M04 A3017 RMK A01
KUCY 201315Z AUTO 20005KT 10SM OVC016 05/M04 A3016 RMK A01
KUCY 201255Z AUTO 20006KT 10SM OVC016 05/M05 A3016 RMK A01
KUCY 201235Z AUTO 19007KT 10SM OVC019 04/M04 A3015 RMK A01
KUCY 201215Z AUTO 20004KT 10SM OVC020 04/M05 A3015 RMK A01
KUCY 201155Z AUTO 20005KT 10SM OVC020 04/M05 A3014 RMK A01
KUCY 201135Z AUTO 20005KT 10SM SCT020 SCT048 03/M05 A3014 RMK A01
KUCY 201115Z AUTO 18009KT 10SM FEW035 FEW048 03/M04 A3013 RMK A01
KUCY 201055Z AUTO 19008KT 10SM CLR 03/M05 A3013 RMK A01
KUCY 201035Z AUTO 18009KT 10SM CLR 02/M04 A3013 RMK A01
KUCY 201015Z AUTO 19009KT 10SM CLR 03/M05 A3013 RMK A01
KUCY 200955Z AUTO 18008KT 10SM FEW045 02/M05 A3012 RMK A01
KUCY 200935Z AUTO 18008KT 10SM SCT045 02/M05 A3013 RMK A01
KUCY 200915Z AUTO 19009KT 10SM CLR 03/M05 A3013 RMK A01
KUCY 200855Z AUTO 19010KT 10SM CLR 04/M05 A3013 RMK A01
KUCY 200835Z AUTO 10.08333310KT 10SM CLR 03/M05 A3012 RMK A01
KUCY 200815Z AUTO 20009KT 10SM CLR 04/M05 A3013 RMK A01
KUCY 200755Z AUTO 19010KT 10SM BKN039 04/M05 A3012 RMK A01
KUCY 200735Z AUTO 20010KT 10SM OVC039 04/M05 A3012 RMK A01
KUCY 200715Z AUTO 20009KT 10SM OVC038 05/M06 A3012 RMK A01
KUCY 200655Z AUTO 20010KT 10SM OVC037 05/M06 A3012 RMK A01
KUCY 200635Z AUTO 19010KT 10SM OVC035 04/M05 A3012 RMK A01
KUCY 200615Z AUTO 19010KT 10SM OVC035 04/M06 A3012 RMK A01
KUCY 200555Z AUTO 20008KT 10SM OVC035 04/M06 A3013 RMK A01
KUCY 200535Z AUTO 20007G13KT 10SM OVC035 04/M07 A3013 RMK A01
KUCY 200515Z AUTO 20009KT 10SM OVC035 04/M07 A3013 RMK A01
KUCY 200455Z AUTO 20010KT 10SM OVC036 04/M07 A3013 RMK A01
KUCY 200435Z AUTO 21007KT 10SM OVC035 04/M07 A3013 RMK A01
KUCY 200415Z AUTO 20010KT 10SM OVC035 04/M06 A3013 RMK A01
KUCY 200355Z AUTO 19011KT 10SM BKN036 OVC044 04/M07 A3013 RMK A01
KUCY 200335Z AUTO 20008KT 10SM BKN035 OVC043 04/M06 A3013 RMK A01
KUCY 200315Z AUTO 21009KT 10SM SCT035 BKN044 04/M06 A3013 RMK A01
KUCY 200255Z AUTO 20008KT 10SM OVC034 04/M06 A3012 RMK A01
KUCY 200235Z AUTO 20007KT 10SM OVC033 04/M06 A3012 RMK A01
KUCY 200215Z AUTO 20007KT 10SM OVC033 04/M06 A3012 RMK A01
KUCY 200155Z AUTO 20010G15KT 10SM OVC033 04/M05 A3012 RMK A01
KUCY 200135Z AUTO 19011KT 10SM OVC034 04/M05 A3012 RMK A01
KUCY 200115Z AUTO 19011KT 10SM OVC035 04/M05 A3013 RMK A01
KUCY 200055Z AUTO 19011KT 10SM OVC037 04/M05 A3013 RMK A01
KUCY 200035Z AUTO 20009KT 10SM OVC037 04/M05 A3013 RMK A01
KUCY 200015Z AUTO 19011KT 10SM OVC035 04/M05 A3013 RMK A01
KUCY 192355Z AUTO 21007KT 10SM OVC037 04/M05 A3013 RMK A01
KUCY 192335Z AUTO 20009KT 10SM BKN036 04/M05 A3013 RMK A01
KUCY 192315Z AUTO 19009KT 10SM FEW036 04/M05 A3013 RMK A01
KUCY 192255Z AUTO 19010KT 10SM SCT036 04/M05 A3013 RMK A01
KUCY 192235Z AUTO 19010KT 10SM FEW039 04/M05 A3014 RMK A01
KUCY 192215Z AUTO 18010KT 10SM BKN039 04/M04 A3014 RMK A01
KUCY 192155Z AUTO 19010KT 10SM OVC040 04/M05 A3014 RMK A01
KUCY 192135Z AUTO 19009KT 10SM OVC039 04/M05 A3014 RMK A01
KUCY 192115Z AUTO 19013KT 10SM FEW029 OVC038 04/M06 A3014 RMK A01
KUCY 192055Z AUTO 19010KT 10SM SCT026 OVC038 04/M05 A3015 RMK A01
KUCY 192035Z AUTO 19011KT 10SM FEW025 SCT039 04/M06 A3015 RMK A01
KUCY 192015Z AUTO 19012KT 10SM CLR 04/M06 A3016 RMK A01
KUCY 191955Z AUTO 19011KT 10SM FEW039 04/M06 A3016 RMK A01
KUCY 191935Z AUTO 19013KT 10SM CLR 04/M06 A3017 RMK A01
KUCY 191915Z AUTO 19013KT 10SM CLR 03/M05 A3018 RMK A01
KUCY 191855Z AUTO 18012KT 10SM CLR 03/M05 A3020 RMK A01
KUCY 191835Z AUTO 19010KT 10SM CLR 02/M05 A3021 RMK A01
KUCY 191815Z AUTO 19010KT 10SM CLR 02/M06 A3023 RMK A01
KUCY 191755Z AUTO 18009KT 10SM CLR 02/M06 A3024 RMK A01
KUCY 191735Z AUTO 19009KT 10SM CLR 01/M06 A3025 RMK A01
KUCY 191715Z AUTO 18009KT 10SM CLR 01/M06 A3026 RMK A01
KUCY 191655Z AUTO 20006KT 10SM CLR 01/M07 A3027 RMK A01
KUCY 191635Z AUTO 21007KT 10SM CLR 01/M08 A3027 RMK A01
KUCY 191615Z AUTO 6.41666706KT 10SM CLR M00/M07 A3027 RMK A01
KUCY 191555Z AUTO 19007KT 10SM CLR M01/M08 A3027 RMK A01
KUCY 191535Z AUTO 19007KT 10SM CLR M02/M08 A3027 RMK A01
KUCY 191515Z AUTO 19008KT 10SM CLR M03/M08 A3027 RMK A01